Time;durP1;ratioP1;P1;durP2;ratioP2;P2;SDS_P1;SDS_P2;PMS_P1;PMS_P2;Temp;Humidity;BMP_temperature;BMP_pressure;BME280_temperature;BME280_humidity;BME280_pressure;Samples;Min_cycle;Max_cycle;Signal;HPM_P1;HPM_P2
2022/10/07 00:02:26;;;;;;;11.88;9.02;;;13.10;94.40;;;;;;5073000;28;20186;-63
2022/10/07 00:04:53;;;;;;;10.63;7.75;;;13.10;94.30;;;;;;5073091;28;20190;-63
2022/10/07 00:07:21;;;;;;;12.70;9.02;;;13.00;94.10;;;;;;5072511;28;20193;-63
2022/10/07 00:09:48;;;;;;;18.23;8.23;;;13.00;93.70;;;;;;5072867;28;20190;-63
2022/10/07 00:12:15;;;;;;;10.95;6.43;;;13.00;94.00;;;;;;5072614;28;20205;-62
2022/10/07 00:14:42;;;;;;;9.18;6.32;;;13.00;94.10;;;;;;5072723;28;20200;-63
2022/10/07 00:17:09;;;;;;;17.20;10.05;;;13.00;94.10;;;;;;5070096;28;20208;-63
2022/10/07 00:19:38;;;;;;;23.35;10.18;;;13.00;94.50;;;;;;5072588;28;20194;-64
2022/10/07 00:22:05;;;;;;;13.13;10.30;;;13.00;94.80;;;;;;5072498;28;20185;-62
2022/10/07 00:24:32;;;;;;;12.30;9.27;;;13.00;94.90;;;;;;5072667;28;20196;-63
2022/10/07 00:27:00;;;;;;;9.95;8.65;;;13.00;95.10;;;;;;5072083;28;20186;-63
2022/10/07 00:29:27;;;;;;;11.45;7.85;;;13.00;94.60;;;;;;5072813;28;20559;-63
2022/10/07 00:31:54;;;;;;;22.55;9.30;;;12.90;94.80;;;;;;5072202;28;20190;-62
2022/10/07 00:34:21;;;;;;;16.77;10.77;;;12.90;94.80;;;;;;5052520;28;20190;-63
2022/10/07 00:36:50;;;;;;;12.65;7.97;;;13.00;94.80;;;;;;5064409;28;20672;-63
2022/10/07 00:39:18;;;;;;;10.77;7.60;;;13.00;94.80;;;;;;5071946;28;20189;-62
2022/10/07 00:41:49;;;;;;;10.07;6.97;;;13.00;94.70;;;;;;5072083;28;20198;-63
2022/10/07 00:44:40;;;;;;;13.70;9.75;;;13.00;94.60;;;;;;5072373;28;20528;-63
2022/10/07 00:47:19;;;;;;;13.35;9.88;;;13.00;94.90;;;;;;5071971;28;20269;-63
2022/10/07 00:49:50;;;;;;;14.82;10.82;;;13.00;95.00;;;;;;5071741;28;20182;-63
2022/10/07 00:52:22;;;;;;;17.55;11.18;;;12.90;95.40;;;;;;5071888;28;21322;-63
2022/10/07 00:54:51;;;;;;;18.52;10.85;;;13.00;95.70;;;;;;5071254;28;20197;-63
2022/10/07 00:57:20;;;;;;;14.65;10.85;;;13.10;95.80;;;;;;5072416;28;20263;-63
2022/10/07 00:59:47;;;;;;;19.08;13.27;;;13.10;95.80;;;;;;5071737;28;20211;-63
2022/10/07 01:02:15;;;;;;;16.83;11.73;;;13.20;96.00;;;;;;5072351;28;20198;-62
2022/10/07 01:04:43;;;;;;;14.07;11.00;;;13.20;96.00;;;;;;5071602;28;20240;-63
2022/10/07 01:07:10;;;;;;;16.48;11.30;;;13.30;96.20;;;;;;5071906;28;20238;-63
2022/10/07 01:09:38;;;;;;;14.60;11.68;;;13.30;96.40;;;;;;5069614;28;20349;-65
2022/10/07 01:12:15;;;;;;;12.02;9.80;;;13.30;96.30;;;;;;5072058;28;20197;-62
2022/10/07 01:14:52;;;;;;;18.65;11.43;;;13.40;96.40;;;;;;5070784;28;20198;-63
2022/10/07 01:17:26;;;;;;;12.38;8.70;;;13.40;96.10;;;;;;5072044;28;20285;-64
2022/10/07 01:20:28;;;;;;;13.50;10.48;;;13.40;96.00;;;;;;5071378;28;20235;-63
2022/10/07 01:23:08;;;;;;;10.55;7.90;;;13.40;96.00;;;;;;5071980;28;20648;-63
2022/10/07 01:25:54;;;;;;;11.95;8.63;;;13.40;96.00;;;;;;5066832;28;20197;-63
2022/10/07 01:28:29;;;;;;;13.90;9.80;;;13.40;96.20;;;;;;5071527;28;20595;-63
2022/10/07 01:31:01;;;;;;;15.18;9.38;;;13.40;96.20;;;;;;5072189;28;20192;-63
2022/10/07 01:33:32;;;;;;;13.77;9.30;;;13.50;96.50;;;;;;5071440;28;20216;-63
2022/10/07 01:36:06;;;;;;;15.20;10.88;;;13.50;96.50;;;;;;5071685;28;20232;-65
2022/10/07 01:38:37;;;;;;;13.93;10.30;;;13.60;96.50;;;;;;5071504;28;20186;-64
2022/10/07 01:41:09;;;;;;;11.13;9.55;;;13.60;96.60;;;;;;5071852;28;20190;-63
2022/10/07 01:43:40;;;;;;;14.30;9.15;;;13.60;96.70;;;;;;5071406;28;20540;-63
2022/10/07 01:46:11;;;;;;;10.60;8.98;;;13.70;96.60;;;;;;5071726;28;20194;-64
2022/10/07 01:48:38;;;;;;;17.88;9.63;;;13.70;96.50;;;;;;5055205;28;20707;-63
2022/10/07 01:51:08;;;;;;;12.07;9.05;;;13.70;96.60;;;;;;5071407;28;20200;-63
2022/10/07 01:53:49;;;;;;;12.02;9.18;;;13.80;96.60;;;;;;5071200;28;20217;-63
2022/10/07 01:56:35;;;;;;;14.63;8.95;;;13.90;96.80;;;;;;5071324;28;20194;-66
2022/10/07 01:59:24;;;;;;;12.48;9.90;;;13.90;96.80;;;;;;5051724;28;20209;-64
2022/10/07 02:01:57;;;;;;;13.70;9.75;;;13.90;97.10;;;;;;5055262;28;20218;-63
2022/10/07 02:04:40;;;;;;;10.57;9.05;;;14.00;97.10;;;;;;5072761;28;20522;-63
2022/10/07 02:07:18;;;;;;;15.45;11.68;;;14.00;97.00;;;;;;5075147;28;20182;-63
2022/10/07 02:09:51;;;;;;;12.48;11.18;;;14.10;97.00;;;;;;5075332;28;20190;-62
2022/10/07 02:12:26;;;;;;;16.88;10.88;;;14.00;97.10;;;;;;5074920;28;20213;-63
2022/10/07 02:15:02;;;;;;;14.70;12.63;;;14.10;97.30;;;;;;5073594;28;20185;-64
2022/10/07 02:17:34;;;;;;;17.48;11.48;;;14.10;97.30;;;;;;5074951;28;20181;-64
2022/10/07 02:20:05;;;;;;;14.02;11.73;;;14.20;97.40;;;;;;5075073;28;20193;-63
2022/10/07 02:22:35;;;;;;;15.55;11.98;;;14.20;97.50;;;;;;5074650;28;20292;-63
2022/10/07 02:25:04;;;;;;;13.75;12.35;;;14.20;97.50;;;;;;5075117;28;20201;-63
2022/10/07 02:27:36;;;;;;;14.40;13.00;;;14.20;97.50;;;;;;5074225;28;20192;-62
2022/10/07 02:30:09;;;;;;;17.90;13.63;;;14.30;97.40;;;;;;5074655;28;20204;-63
2022/10/07 02:32:41;;;;;;;25.70;13.77;;;14.30;97.30;;;;;;5073383;28;20209;-63
2022/10/07 02:35:17;;;;;;;19.52;12.35;;;14.30;97.40;;;;;;5074945;28;20616;-63
2022/10/07 02:37:48;;;;;;;14.75;12.63;;;14.30;97.50;;;;;;5074297;28;20252;-63
2022/10/07 02:40:16;;;;;;;14.80;11.88;;;14.40;97.50;;;;;;5075141;28;20219;-63
2022/10/07 02:42:53;;;;;;;16.15;12.63;;;14.40;97.40;;;;;;5074162;28;20186;-63
2022/10/07 02:45:28;;;;;;;14.25;10.85;;;14.40;97.40;;;;;;5074713;28;20187;-63
2022/10/07 02:47:59;;;;;;;14.63;11.75;;;14.40;97.40;;;;;;5074529;28;20185;-63
2022/10/07 02:50:36;;;;;;;19.85;12.25;;;14.40;97.40;;;;;;5074457;28;20205;-62
2022/10/07 02:53:05;;;;;;;14.33;12.50;;;14.50;97.50;;;;;;5074164;28;20304;-63
2022/10/07 02:55:33;;;;;;;15.35;12.07;;;14.50;97.40;;;;;;5074439;28;20466;-63
2022/10/07 02:58:05;;;;;;;18.20;12.77;;;14.50;97.40;;;;;;5073890;28;20188;-63
2022/10/07 03:00:39;;;;;;;16.00;13.35;;;14.50;97.20;;;;;;5074340;28;20247;-63
2022/10/07 03:03:06;;;;;;;21.85;14.80;;;14.50;97.40;;;;;;5074025;28;20192;-63
2022/10/07 03:05:35;;;;;;;20.00;16.08;;;14.50;97.50;;;;;;5074126;28;20193;-63
2022/10/07 03:08:05;;;;;;;23.58;19.30;;;14.60;97.80;;;;;;5073566;28;20235;-63
2022/10/07 03:10:32;;;;;;;25.15;16.98;;;14.60;97.70;;;;;;5074188;28;20232;-63
2022/10/07 03:13:00;;;;;;;21.85;17.23;;;14.50;98.00;;;;;;5073980;28;20559;-63
2022/10/07 03:15:28;;;;;;;27.50;21.08;;;14.50;98.30;;;;;;5073626;28;20196;-63
2022/10/07 03:17:56;;;;;;;24.75;18.90;;;14.50;98.40;;;;;;5073253;28;20197;-63
2022/10/07 03:20:24;;;;;;;29.08;19.40;;;14.60;98.40;;;;;;5073929;28;20193;-63
2022/10/07 03:22:51;;;;;;;25.52;18.10;;;14.60;98.50;;;;;;5073739;28;20209;-63
2022/10/07 03:25:18;;;;;;;24.47;17.43;;;14.50;98.60;;;;;;5073875;28;20194;-63
2022/10/07 03:27:47;;;;;;;24.38;17.92;;;14.60;99.00;;;;;;5073413;28;20447;-63
2022/10/07 03:30:14;;;;;;;24.77;17.20;;;14.60;98.60;;;;;;5073665;28;20652;-63
2022/10/07 03:32:42;;;;;;;30.08;18.20;;;14.60;98.40;;;;;;5073195;28;20447;-64
2022/10/07 03:35:10;;;;;;;29.63;18.77;;;14.70;98.40;;;;;;5073715;28;20551;-63
2022/10/07 03:37:37;;;;;;;26.10;18.05;;;14.60;98.40;;;;;;5073036;28;20460;-62
2022/10/07 03:40:09;;;;;;;25.42;18.42;;;14.60;98.70;;;;;;5073524;28;20247;-63
2022/10/07 03:42:36;;;;;;;22.35;17.13;;;14.60;98.40;;;;;;5073082;28;20181;-63
2022/10/07 03:45:05;;;;;;;28.48;16.52;;;14.60;98.60;;;;;;5073307;28;20193;-63
2022/10/07 03:47:32;;;;;;;32.05;19.90;;;14.60;98.50;;;;;;5072999;28;20193;-63
2022/10/07 03:50:00;;;;;;;23.38;17.55;;;14.60;98.90;;;;;;5073237;28;20243;-63
2022/10/07 03:52:28;;;;;;;28.33;19.05;;;14.70;98.70;;;;;;5071743;28;20243;-64
2022/10/07 03:54:56;;;;;;;24.63;19.53;;;14.70;98.80;;;;;;5073113;28;20619;-63
2022/10/07 04:00:09;;;;;;;23.73;18.63;;;14.70;98.70;;;;;;5073270;28;20200;-63
2022/10/07 04:02:36;;;;;;;22.60;17.70;;;14.70;98.60;;;;;;5072842;28;20464;-63
2022/10/07 04:05:03;;;;;;;25.23;17.73;;;14.60;98.80;;;;;;5073647;28;20494;-63
2022/10/07 04:07:32;;;;;;;30.65;18.58;;;14.50;99.00;;;;;;5072914;28;20443;-64
2022/10/07 04:10:00;;;;;;;28.90;19.30;;;14.50;99.40;;;;;;5073473;28;20217;-63
2022/10/07 04:12:31;;;;;;;27.80;18.43;;;14.40;99.50;;;;;;5073078;28;20436;-64
2022/10/07 04:15:02;;;;;;;25.93;19.27;;;14.40;99.90;;;;;;5073243;28;20484;-63
2022/10/07 04:17:29;;;;;;;25.40;20.50;;;14.30;99.90;;;;;;5073076;28;20431;-63
2022/10/07 04:19:56;;;;;;;30.15;21.38;;;14.40;99.90;;;;;;5072727;28;20965;-63
2022/10/07 04:22:24;;;;;;;28.08;18.92;;;14.40;99.90;;;;;;5073502;28;20194;-63
2022/10/07 04:27:33;;;;;;;31.10;19.10;;;14.30;99.90;;;;;;5072758;28;20189;-64
2022/10/07 04:30:01;;;;;;;30.90;19.90;;;14.40;99.90;;;;;;5072456;28;21006;-63
2022/10/07 04:32:28;;;;;;;30.10;18.00;;;14.40;99.90;;;;;;5073073;28;20450;-63
2022/10/07 04:34:55;;;;;;;23.83;18.03;;;14.40;99.90;;;;;;5071099;28;20475;-63
2022/10/07 04:37:22;;;;;;;21.03;17.00;;;14.40;99.90;;;;;;5072576;28;20870;-63
2022/10/07 04:39:50;;;;;;;23.30;17.60;;;14.40;99.90;;;;;;5071960;28;20432;-63
2022/10/07 04:45:01;;;;;;;26.40;18.73;;;14.40;99.90;;;;;;5071973;28;20420;-64
2022/10/07 04:47:28;;;;;;;27.17;18.90;;;14.30;99.90;;;;;;5072304;28;20462;-64
2022/10/07 04:49:55;;;;;;;28.45;18.88;;;14.30;99.90;;;;;;5072291;28;20209;-62
2022/10/07 04:52:24;;;;;;;28.38;19.48;;;14.30;99.90;;;;;;5071709;28;20268;-63
2022/10/07 04:54:51;;;;;;;28.50;19.42;;;14.40;99.90;;;;;;5072619;28;20231;-63
2022/10/07 04:57:20;;;;;;;25.80;18.45;;;14.40;99.90;;;;;;5071650;28;20189;-63
2022/10/07 04:59:48;;;;;;;23.98;17.50;;;14.40;99.90;;;;;;5072550;28;20200;-63
2022/10/07 05:02:15;;;;;;;25.80;18.60;;;14.40;99.90;;;;;;5071803;28;20182;-63
2022/10/07 05:04:43;;;;;;;24.48;17.67;;;14.40;99.90;;;;;;5072420;28;20225;-63
2022/10/07 05:07:10;;;;;;;33.50;19.50;;;14.40;99.90;;;;;;5072032;28;20243;-63
2022/10/07 05:09:37;;;;;;;24.40;18.48;;;14.40;99.90;;;;;;5072615;28;20789;-63
2022/10/07 05:12:05;;;;;;;25.17;19.55;;;14.50;99.90;;;;;;5072114;28;20185;-63
2022/10/07 05:14:34;;;;;;;26.30;18.67;;;14.50;99.90;;;;;;5072438;28;20676;-63
2022/10/07 05:17:01;;;;;;;29.73;18.15;;;14.50;99.90;;;;;;5072064;28;20462;-63
2022/10/07 05:19:28;;;;;;;25.00;18.50;;;14.50;99.90;;;;;;5072718;28;20545;-63
2022/10/07 05:21:55;;;;;;;26.77;18.43;;;14.50;99.90;;;;;;5072053;28;20436;-63
2022/10/07 05:24:22;;;;;;;29.50;19.65;;;14.50;99.90;;;;;;5072305;28;20514;-63
2022/10/07 05:26:50;;;;;;;25.45;18.30;;;14.50;99.90;;;;;;5071869;28;20192;-62
2022/10/07 05:29:20;;;;;;;28.10;17.37;;;14.50;99.90;;;;;;5072191;28;20194;-63
2022/10/07 05:31:49;;;;;;;24.97;18.20;;;14.50;99.90;;;;;;5071594;28;20779;-62
2022/10/07 05:34:16;;;;;;;24.27;17.37;;;14.50;99.90;;;;;;5072152;28;20813;-63
2022/10/07 05:36:43;;;;;;;30.00;18.40;;;14.60;99.90;;;;;;5072019;28;20470;-63
2022/10/07 05:39:11;;;;;;;26.03;18.23;;;14.60;99.90;;;;;;5072960;28;20442;-63
2022/10/07 05:41:39;;;;;;;28.70;17.70;;;14.60;99.90;;;;;;5075860;28;20463;-63
2022/10/07 05:44:07;;;;;;;37.38;21.02;;;14.60;99.90;;;;;;5072322;28;20444;-63
2022/10/07 05:46:34;;;;;;;27.65;19.15;;;14.60;99.90;;;;;;5073792;28;20209;-64
2022/10/07 05:49:03;;;;;;;28.55;19.25;;;14.60;99.90;;;;;;5073982;28;20637;-64
2022/10/07 05:51:30;;;;;;;32.70;19.47;;;14.60;99.90;;;;;;5073389;28;20190;-64
2022/10/07 05:53:58;;;;;;;30.77;20.70;;;14.60;99.90;;;;;;5074020;28;20578;-63
2022/10/07 05:56:25;;;;;;;26.97;18.30;;;14.60;99.90;;;;;;5064652;28;20269;-63
2022/10/07 05:58:53;;;;;;;25.50;18.05;;;14.60;99.90;;;;;;5071571;28;20432;-63
2022/10/07 06:01:22;;;;;;;27.83;19.05;;;14.60;99.90;;;;;;5074287;28;20209;-63
2022/10/07 06:03:51;;;;;;;24.80;18.33;;;14.60;99.90;;;;;;5074210;28;20190;-63
2022/10/07 06:06:20;;;;;;;31.53;20.97;;;14.60;99.90;;;;;;5072507;28;20439;-63
2022/10/07 06:08:48;;;;;;;26.80;19.00;;;14.60;99.90;;;;;;5074132;28;20444;-63
2022/10/07 06:14:03;;;;;;;27.13;19.90;;;14.70;99.90;;;;;;5073541;28;20976;-63
2022/10/07 06:16:30;;;;;;;28.92;20.45;;;14.60;99.90;;;;;;5074179;28;20500;-64
2022/10/07 06:18:58;;;;;;;31.27;18.92;;;14.60;99.90;;;;;;5073422;28;20192;-64
2022/10/07 06:21:28;;;;;;;35.23;20.60;;;14.60;99.90;;;;;;5073807;28;20201;-63
2022/10/07 06:23:56;;;;;;;23.23;19.00;;;14.70;99.90;;;;;;5073097;28;20520;-64
2022/10/07 06:26:24;;;;;;;28.52;19.02;;;14.70;99.90;;;;;;5073965;28;20436;-64
2022/10/07 06:28:51;;;;;;;27.80;19.67;;;14.70;99.90;;;;;;5073119;28;20717;-63
2022/10/07 06:31:22;;;;;;;26.97;17.93;;;14.70;99.90;;;;;;5073728;28;20201;-63
2022/10/07 06:33:50;;;;;;;22.80;16.00;;;14.70;99.90;;;;;;5073156;28;20436;-63
2022/10/07 06:36:19;;;;;;;23.83;17.10;;;14.70;99.90;;;;;;5073007;28;20498;-63
2022/10/07 06:38:50;;;;;;;21.83;17.20;;;14.80;99.90;;;;;;5073042;28;20447;-63
2022/10/07 06:41:17;;;;;;;26.60;17.33;;;14.80;99.90;;;;;;5073677;28;20501;-65
2022/10/07 06:43:45;;;;;;;23.27;16.60;;;14.80;99.90;;;;;;5072688;28;20462;-64
2022/10/07 06:46:15;;;;;;;20.00;16.03;;;14.90;99.90;;;;;;5072779;28;20436;-63
2022/10/07 06:48:43;;;;;;;29.30;17.33;;;14.90;99.90;;;;;;5061170;28;21212;-63
2022/10/07 06:51:14;;;;;;;22.05;15.68;;;15.00;99.90;;;;;;5069863;28;20550;-64
2022/10/07 06:53:41;;;;;;;20.27;15.70;;;15.00;99.90;;;;;;5068641;28;20273;-63
2022/10/07 06:56:12;;;;;;;18.57;15.23;;;15.00;99.90;;;;;;5071307;28;20448;-63
2022/10/07 06:58:39;;;;;;;22.80;16.27;;;15.00;99.90;;;;;;5073178;28;20446;-63
2022/10/07 07:01:06;;;;;;;17.60;15.70;;;15.00;99.90;;;;;;5072809;28;20204;-63
2022/10/07 07:03:33;;;;;;;22.63;16.40;;;15.10;99.90;;;;;;5073849;28;20448;-63
2022/10/07 07:06:00;;;;;;;21.70;17.07;;;15.10;99.90;;;;;;5073317;28;20444;-63
2022/10/07 07:08:30;;;;;;;22.63;15.63;;;15.10;99.70;;;;;;5073492;28;20793;-63
2022/10/07 07:11:03;;;;;;;19.73;14.27;;;15.10;99.80;;;;;;5068404;28;20432;-63
2022/10/07 07:13:33;;;;;;;18.70;15.33;;;15.20;99.90;;;;;;5073121;28;20985;-63
2022/10/07 07:16:00;;;;;;;19.83;15.17;;;15.20;99.90;;;;;;5071920;28;20537;-64
2022/10/07 07:18:28;;;;;;;17.93;14.20;;;15.20;99.80;;;;;;5069034;28;20919;-63
2022/10/07 07:21:01;;;;;;;18.13;12.20;;;15.20;99.70;;;;;;5072892;28;20494;-64
2022/10/07 07:23:28;;;;;;;21.27;15.03;;;15.30;99.60;;;;;;5069604;28;20914;-64
2022/10/07 07:25:55;;;;;;;19.43;12.87;;;15.30;99.60;;;;;;5071302;28;20433;-63
2022/10/07 07:28:22;;;;;;;16.17;12.70;;;15.30;99.30;;;;;;5072524;28;20440;-63
2022/10/07 07:30:50;;;;;;;15.50;12.47;;;15.30;99.30;;;;;;5072986;28;20447;-63
2022/10/07 07:33:17;;;;;;;18.87;10.50;;;15.30;99.60;;;;;;5072334;28;20497;-64
2022/10/07 07:35:44;;;;;;;16.53;11.73;;;15.20;98.60;;;;;;5071504;28;20487;-63
2022/10/07 07:38:12;;;;;;;15.43;11.23;;;15.20;98.70;;;;;;5072133;28;20428;-63
2022/10/07 07:40:39;;;;;;;13.77;11.30;;;15.20;98.80;;;;;;5072147;28;20952;-64
2022/10/07 07:43:07;;;;;;;13.97;11.33;;;15.20;98.90;;;;;;5072148;28;20826;-64
2022/10/07 07:45:35;;;;;;;17.17;11.67;;;15.30;99.00;;;;;;5068183;28;20972;-63
2022/10/07 07:48:04;;;;;;;16.77;12.10;;;15.30;98.80;;;;;;5069437;28;20459;-64
2022/10/07 07:50:31;;;;;;;16.83;12.10;;;15.30;98.60;;;;;;5072048;28;20522;-64
2022/10/07 07:53:00;;;;;;;15.27;11.27;;;15.30;98.60;;;;;;5071011;28;20444;-65
2022/10/07 07:55:27;;;;;;;15.40;11.07;;;15.30;98.50;;;;;;5069508;28;20529;-63
2022/10/07 07:57:54;;;;;;;16.80;12.57;;;15.30;98.70;;;;;;5071413;28;20444;-63
2022/10/07 08:00:21;;;;;;;14.80;11.70;;;15.30;98.90;;;;;;5071978;28;20915;-63
2022/10/07 08:02:48;;;;;;;16.80;11.53;;;15.40;98.90;;;;;;5070342;28;20486;-63
2022/10/07 08:05:19;;;;;;;15.13;11.63;;;15.40;98.70;;;;;;5068083;28;20428;-64
2022/10/07 08:07:46;;;;;;;17.10;12.97;;;15.50;98.50;;;;;;5069945;28;20444;-64
2022/10/07 08:10:13;;;;;;;15.93;11.67;;;15.50;98.30;;;;;;5068780;28;20444;-63
2022/10/07 08:12:40;;;;;;;19.50;12.70;;;15.50;98.10;;;;;;5069603;28;20502;-63
2022/10/07 08:15:09;;;;;;;17.07;12.30;;;15.50;98.10;;;;;;5069432;28;20572;-63
2022/10/07 08:17:36;;;;;;;17.53;11.40;;;15.60;97.90;;;;;;5070613;28;20432;-63
2022/10/07 08:20:04;;;;;;;15.60;10.20;;;15.70;98.10;;;;;;5069627;28;20440;-63
2022/10/07 08:22:32;;;;;;;12.83;9.53;;;15.80;98.30;;;;;;5069394;28;20436;-63
2022/10/07 08:24:59;;;;;;;16.57;11.03;;;15.80;98.30;;;;;;5070225;28;20910;-63
2022/10/07 08:27:27;;;;;;;15.77;10.13;;;15.90;98.20;;;;;;5070061;28;20454;-62
2022/10/07 08:29:54;;;;;;;11.73;10.03;;;16.00;98.10;;;;;;5069486;28;20443;-64
2022/10/07 08:32:21;;;;;;;13.63;11.07;;;16.20;98.20;;;;;;5068893;28;20490;-64
2022/10/07 08:34:48;;;;;;;13.50;9.80;;;16.30;98.00;;;;;;5068997;28;22001;-63
2022/10/07 08:37:15;;;;;;;12.23;10.63;;;16.30;97.80;;;;;;5069720;28;20498;-63
2022/10/07 08:39:43;;;;;;;11.27;9.43;;;16.40;97.40;;;;;;5070075;28;20448;-64
2022/10/07 08:42:15;;;;;;;14.00;9.47;;;16.50;96.90;;;;;;5068141;28;20488;-62
2022/10/07 08:44:46;;;;;;;14.07;9.17;;;16.60;96.20;;;;;;5069487;28;20436;-63
2022/10/07 08:47:25;;;;;;;10.33;8.23;;;16.70;95.60;;;;;;5069220;28;20450;-63
2022/10/07 08:50:03;;;;;;;10.13;8.87;;;16.80;95.70;;;;;;5069888;28;20443;-63
2022/10/07 08:52:39;;;;;;;12.00;9.90;;;16.80;95.60;;;;;;5069952;28;20580;-64
2022/10/07 08:55:18;;;;;;;11.73;9.63;;;16.80;95.50;;;;;;5068330;28;20484;-63
2022/10/07 08:58:03;;;;;;;14.20;10.60;;;16.90;95.30;;;;;;5068877;28;20482;-63
2022/10/07 09:00:37;;;;;;;13.07;9.60;;;17.00;95.20;;;;;;5069516;28;20455;-64
2022/10/07 09:03:10;;;;;;;11.13;9.90;;;17.00;94.90;;;;;;5069832;28;20432;-63
2022/10/07 09:05:41;;;;;;;11.83;10.07;;;17.10;94.90;;;;;;5067915;28;20432;-63
2022/10/07 09:08:16;;;;;;;11.77;9.90;;;17.30;94.90;;;;;;5067189;28;20760;-64
2022/10/07 09:10:49;;;;;;;13.20;8.80;;;17.40;94.80;;;;;;5068924;28;20529;-63
2022/10/07 09:13:20;;;;;;;9.60;8.40;;;17.50;94.80;;;;;;5067440;28;20481;-63
2022/10/07 09:15:53;;;;;;;14.23;8.90;;;17.70;94.30;;;;;;5069251;28;20985;-63
2022/10/07 09:18:24;;;;;;;12.83;9.13;;;17.80;93.60;;;;;;5069459;28;20438;-64
2022/10/07 09:20:53;;;;;;;10.90;8.93;;;17.90;93.40;;;;;;5069095;28;20478;-64
2022/10/07 09:23:23;;;;;;;14.63;9.63;;;18.10;93.40;;;;;;5069356;28;20438;-62
2022/10/07 09:25:52;;;;;;;23.07;10.53;;;18.20;92.00;;;;;;5070437;28;20451;-63
2022/10/07 09:28:24;;;;;;;13.17;10.77;;;18.20;92.40;;;;;;5069661;28;20450;-63
2022/10/07 09:30:51;;;;;;;10.30;8.80;;;;;;;;;;5069970;28;20462;-62
2022/10/07 09:33:20;;;;;;;11.97;7.80;;;;;;;;;;5066602;28;20440;-64
2022/10/07 09:35:52;;;;;;;8.90;8.00;;;;;;;;;;5070008;28;20482;-63
2022/10/07 09:38:29;;;;;;;10.63;7.67;;;;;;;;;;5070730;28;20440;-63
2022/10/07 09:43:56;;;;;;;10.93;8.33;;;;;;;;;;5070648;28;20431;-64
2022/10/07 09:46:35;;;;;;;10.07;8.50;;;;;;;;;;5069443;28;20451;-63
2022/10/07 09:49:03;;;;;;;12.87;8.00;;;;;;;;;;5066882;28;20518;-64
2022/10/07 09:51:31;;;;;;;12.20;8.30;;;;;;;;;;5070187;28;20432;-64
2022/10/07 09:54:01;;;;;;;10.80;8.67;;;;;;;;;;5070235;28;20435;-65
2022/10/07 09:56:47;;;;;;;8.73;7.83;;;;;;;;;;5065891;28;20479;-65
2022/10/07 09:59:20;;;;;;;9.37;7.90;;;;;;;;;;5069959;28;20468;-64
2022/10/07 10:01:51;;;;;;;12.93;7.20;;;;;;;;;;5070015;28;21027;-64
2022/10/07 10:04:20;;;;;;;7.57;6.80;;;;;;;;;;5070123;28;20448;-64
2022/10/07 10:06:49;;;;;;;9.10;7.03;;;;;;;;;;5069816;28;20842;-64
2022/10/07 10:09:19;;;;;;;9.23;7.57;;;;;;;;;;5070137;28;20439;-64
2022/10/07 10:11:46;;;;;;;11.60;7.20;;;;;;;;;;5070160;28;20451;-64
2022/10/07 10:14:37;;;;;;;11.37;8.20;;;;;;;;;;5069530;28;20869;-67
2022/10/07 10:17:04;;;;;;;12.67;7.20;;;;;;;;;;5069096;28;20515;-64
2022/10/07 10:19:32;;;;;;;9.93;7.37;;;;;;;;;;5069756;28;20440;-65
2022/10/07 10:21:59;;;;;;;8.10;7.23;;;;;;;;;;5069915;28;20444;-65
2022/10/07 10:27:17;;;;;;;7.50;6.80;;;;;;;;;;5071527;28;20430;-64
2022/10/07 10:29:55;;;;;;;9.80;7.53;;;;;;;;;;5073475;28;20962;-65
2022/10/07 10:32:40;;;;;;;7.10;6.40;;;;;;;;;;5071592;28;20440;-65
2022/10/07 10:35:12;;;;;;;9.83;8.03;;;;;;;;;;5069556;28;20520;-65
2022/10/07 10:37:51;;;;;;;8.23;6.90;;;;;;;;;;5073668;28;20473;-65
2022/10/07 10:40:24;;;;;;;7.87;7.17;;;;;;;;;;5069772;28;20443;-64
2022/10/07 10:42:58;;;;;;;8.70;7.30;;;;;;;;;;5073443;28;20527;-64
2022/10/07 10:45:34;;;;;;;8.77;7.00;;;;;;;;;;5068658;28;20540;-65
2022/10/07 10:48:13;;;;;;;7.20;6.50;;;;;;;;;;5073523;28;20478;-65
2022/10/07 10:50:47;;;;;;;12.30;6.37;;;;;;;;;;5069196;28;20516;-65
2022/10/07 10:53:21;;;;;;;7.77;6.97;;;;;;;;;;5073093;28;20442;-64
2022/10/07 10:56:08;;;;;;;7.50;6.80;;;;;;;;;;5068116;28;20926;-65
2022/10/07 10:58:41;;;;;;;9.87;7.17;;;;;;;;;;5072638;28;20442;-64
2022/10/07 11:01:16;;;;;;;7.90;6.43;;;;;;;;;;5072382;28;20535;-64
2022/10/07 11:03:59;;;;;;;6.57;5.97;;;;;;;;;;5072732;28;20439;-66
2022/10/07 11:06:29;;;;;;;6.93;6.33;;;;;;;;;;5072807;28;20479;-64
2022/10/07 11:08:58;;;;;;;6.37;5.70;;;;;;;;;;5072797;28;20458;-65
2022/10/07 11:11:26;;;;;;;7.37;5.50;;;;;;;;;;5072758;28;21026;-64
2022/10/07 11:13:55;;;;;;;7.03;5.63;;;;;;;;;;5072712;28;20494;-62
2022/10/07 11:16:26;;;;;;;6.03;5.43;;;;;;;;;;5072196;28;20536;-63
2022/10/07 11:18:59;;;;;;;6.13;5.53;;;18.40;92.50;;;;;;5069578;28;20432;-62
2022/10/07 11:21:33;;;;;;;6.00;5.50;;;47.60;16.00;;;;;;5072364;28;20432;-62
2022/10/07 11:24:04;;;;;;;8.50;5.63;;;47.90;15.80;;;;;;5068835;28;20825;-62
2022/10/07 11:26:36;;;;;;;6.03;5.50;;;48.30;15.60;;;;;;5072342;28;20536;-63
2022/10/07 11:29:16;;;;;;;6.60;5.00;;;48.20;15.10;;;;;;5072332;28;20840;-63
2022/10/07 11:31:49;;;;;;;8.13;5.33;;;48.10;15.80;;;;;;5072408;28;20886;-62
2022/10/07 11:34:19;;;;;;;7.10;5.10;;;48.50;15.30;;;;;;5072316;28;20440;-63
2022/10/07 11:36:55;;;;;;;6.00;4.87;;;48.80;15.00;;;;;;5071731;28;20962;-62
2022/10/07 11:39:23;;;;;;;5.33;4.80;;;49.30;15.00;;;;;;5072462;28;20817;-63
2022/10/07 11:41:56;;;;;;;8.57;4.73;;;49.40;14.60;;;;;;5068369;28;20436;-62
2022/10/07 11:44:29;;;;;;;6.90;4.80;;;49.30;14.50;;;;;;5072779;28;20439;-62
2022/10/07 11:47:01;;;;;;;6.50;5.90;;;49.60;14.20;;;;;;5071380;28;20475;-63
2022/10/07 11:49:33;;;;;;;9.20;5.90;;;49.70;14.10;;;;;;5072063;28;20440;-62
2022/10/07 11:52:04;;;;;;;6.40;5.80;;;50.00;13.70;;;;;;5072438;28;20424;-62
2022/10/07 11:54:40;;;;;;;7.10;5.60;;;49.60;13.60;;;;;;5067245;28;20444;-63
2022/10/07 11:57:19;;;;;;;6.47;5.83;;;48.90;14.00;;;;;;5071818;28;20840;-62
2022/10/07 11:59:51;;;;;;;6.50;5.90;;;48.40;14.30;;;;;;5066434;28;20791;-61
2022/10/07 12:02:45;;;;;;;6.07;5.47;;;48.30;15.00;;;;;;5071723;28;20996;-62
2022/10/07 12:05:55;;;;;;;10.00;5.47;;;48.10;14.60;;;;;;5067479;28;20520;-62
2022/10/07 12:08:29;;;;;;;6.80;4.80;;;47.60;14.40;;;;;;5067886;28;20443;-62
2022/10/07 12:11:13;;;;;;;5.37;4.70;;;47.40;15.30;;;;;;5071602;28;20938;-63
2022/10/07 12:13:42;;;;;;;7.57;5.50;;;47.50;14.90;;;;;;5068467;28;20439;-62
2022/10/07 12:16:54;;;;;;;5.70;4.90;;;47.70;14.60;;;;;;5069765;28;20440;-62
2022/10/07 12:19:22;;;;;;;8.90;5.23;;;47.60;14.90;;;;;;5059925;28;20446;-62
2022/10/07 12:22:18;;;;;;;6.30;5.80;;;47.50;14.70;;;;;;5071161;28;20440;-62
2022/10/07 12:25:09;;;;;;;5.90;5.40;;;47.50;15.00;;;;;;5071625;28;20856;-62
2022/10/07 12:27:36;;;;;;;6.67;5.57;;;47.50;14.80;;;;;;5067235;28;20479;-62
2022/10/07 12:30:04;;;;;;;7.57;5.50;;;47.00;15.00;;;;;;5070996;28;20432;-63
2022/10/07 12:33:00;;;;;;;6.40;5.80;;;46.60;15.40;;;;;;5070313;28;20440;-62
2022/10/07 12:35:44;;;;;;;6.50;5.90;;;46.00;15.60;;;;;;5057730;28;20447;-62
2022/10/07 12:38:22;;;;;;;8.40;6.27;;;45.50;15.90;;;;;;5070732;28;20515;-64
2022/10/07 12:41:01;;;;;;;8.43;6.70;;;45.50;16.20;;;;;;5071026;28;20442;-63
2022/10/07 12:43:38;;;;;;;8.23;6.07;;;45.30;16.60;;;;;;5071308;28;20793;-62
2022/10/07 12:46:09;;;;;;;7.20;5.77;;;45.00;16.60;;;;;;5070234;28;21012;-62
2022/10/07 12:48:41;;;;;;;8.10;4.97;;;44.80;16.60;;;;;;5070175;28;20825;-63
2022/10/07 12:51:18;;;;;;;10.50;6.57;;;44.80;16.30;;;;;;5071115;28;20447;-62
2022/10/07 12:53:47;;;;;;;8.60;5.83;;;44.30;17.30;;;;;;5070341;28;20439;-62
2022/10/07 12:56:20;;;;;;;7.00;5.60;;;43.90;17.30;;;;;;5071018;28;20776;-62
2022/10/07 13:02:26;;;;;;;6.63;5.90;;;43.70;17.60;;;;;;5070743;28;20964;-62
2022/10/07 13:05:18;;;;;;;7.00;5.63;;;43.50;17.80;;;;;;5036874;28;20519;-62
2022/10/07 13:08:22;;;;;;;6.17;5.57;;;43.00;18.10;;;;;;5051683;28;20486;-62
2022/10/07 13:11:31;;;;;;;8.47;6.00;;;42.30;18.30;;;;;;5063425;28;20479;-62
2022/10/07 13:14:02;;;;;;;7.10;5.27;;;40.90;18.90;;;;;;5069688;28;20923;-62
2022/10/07 13:16:36;;;;;;;7.23;6.53;;;39.00;19.90;;;;;;5070881;28;20519;-62
2022/10/07 13:19:13;;;;;;;7.20;6.10;;;37.60;20.90;;;;;;5070607;28;20443;-63
2022/10/07 13:21:45;;;;;;;8.80;6.97;;;36.10;22.60;;;;;;5066972;28;20545;-62
2022/10/07 13:24:17;;;;;;;8.73;7.13;;;34.70;24.20;;;;;;5070393;28;20514;-63
2022/10/07 13:26:49;;;;;;;7.77;6.77;;;33.10;26.00;;;;;;5065039;28;20561;-61
2022/10/07 13:29:23;;;;;;;7.63;6.80;;;32.10;27.30;;;;;;5070493;28;20444;-62